Terminal Aerodrome Forecast
Issued by NWS

Current Version | Previous Version | Text Only | Print | Product List | Glossary On
Versions: 1 2 3 4 5 6 7 8 9 10 11 12 13 14 15 16
000
FTUS44 KBMX 241138 CCA
TAFANB
TAF COR
KANB 241138Z 2412/2512 06007KT P6SM BKN015
     FM241500 12010KT P6SM SCT015 BKN040
     FM242100 14007KT P6SM SCT025 BKN050
     FM250100 11007KT P6SM OVC100
     FM250600 11008KT P6SM OVC010=

USA.gov is the U.S. government's official web portal to all federal, state and local government web resources and services.